sensor_id;sensor_type;location;lat;lon;timestamp;pressure;altitude;pressure_sealevel;temperature
72236;BMP280;60146;52.498;13.462;2023-03-14T00:01:17;98978.22;;;14.62
72236;BMP280;60146;52.498;13.462;2023-03-14T00:03:43;98981.22;;;14.61
72236;BMP280;60146;52.498;13.462;2023-03-14T00:06:09;98984.63;;;14.61
72236;BMP280;60146;52.498;13.462;2023-03-14T00:08:35;98978.09;;;14.55
72236;BMP280;60146;52.498;13.462;2023-03-14T00:11:08;98962.75;;;14.61
72236;BMP280;60146;52.498;13.462;2023-03-14T00:13:34;98974.72;;;14.55
72236;BMP280;60146;52.498;13.462;2023-03-14T00:16:10;98975.09;;;14.54
72236;BMP280;60146;52.498;13.462;2023-03-14T00:18:36;98964.72;;;14.45
72236;BMP280;60146;52.498;13.462;2023-03-14T00:21:03;98936.91;;;14.48
72236;BMP280;60146;52.498;13.462;2023-03-14T00:23:30;98931.16;;;14.42
72236;BMP280;60146;52.498;13.462;2023-03-14T00:26:01;98933.91;;;14.31
72236;BMP280;60146;52.498;13.462;2023-03-14T00:28:27;98924.81;;;14.28
72236;BMP280;60146;52.498;13.462;2023-03-14T00:30:53;98915.09;;;14.32
72236;BMP280;60146;52.498;13.462;2023-03-14T00:33:18;98927.72;;;14.23
72236;BMP280;60146;52.498;13.462;2023-03-14T00:36:02;98917.91;;;14.20
72236;BMP280;60146;52.498;13.462;2023-03-14T00:38:27;98912.22;;;14.18
72236;BMP280;60146;52.498;13.462;2023-03-14T00:40:53;98911.44;;;14.18
72236;BMP280;60146;52.498;13.462;2023-03-14T00:43:20;98905.50;;;14.06
72236;BMP280;60146;52.498;13.462;2023-03-14T00:45:49;98902.56;;;14.07
72236;BMP280;60146;52.498;13.462;2023-03-14T00:48:15;98918.69;;;14.06
72236;BMP280;60146;52.498;13.462;2023-03-14T00:50:40;98915.63;;;14.04
72236;BMP280;60146;52.498;13.462;2023-03-14T00:53:06;98912.00;;;14.08
72236;BMP280;60146;52.498;13.462;2023-03-14T00:55:31;98905.50;;;14.06
72236;BMP280;60146;52.498;13.462;2023-03-14T00:57:57;98894.75;;;13.96
72236;BMP280;60146;52.498;13.462;2023-03-14T01:00:22;98894.06;;;13.98
72236;BMP280;60146;52.498;13.462;2023-03-14T01:02:48;98878.28;;;13.98
72236;BMP280;60146;52.498;13.462;2023-03-14T01:05:14;98874.47;;;13.96
72236;BMP280;60146;52.498;13.462;2023-03-14T01:07:39;98874.31;;;13.89
72236;BMP280;60146;52.498;13.462;2023-03-14T01:10:05;98866.91;;;13.95
72236;BMP280;60146;52.498;13.462;2023-03-14T01:12:32;98873.22;;;13.75
72236;BMP280;60146;52.498;13.462;2023-03-14T01:14:57;98862.69;;;13.75
72236;BMP280;60146;52.498;13.462;2023-03-14T01:17:23;98870.53;;;13.72
72236;BMP280;60146;52.498;13.462;2023-03-14T01:19:48;98879.63;;;13.74
72236;BMP280;60146;52.498;13.462;2023-03-14T01:22:14;98897.19;;;13.70
72236;BMP280;60146;52.498;13.462;2023-03-14T01:24:39;98917.50;;;13.70
72236;BMP280;60146;52.498;13.462;2023-03-14T01:27:05;98933.28;;;13.70
72236;BMP280;60146;52.498;13.462;2023-03-14T01:29:30;98940.09;;;13.71
72236;BMP280;60146;52.498;13.462;2023-03-14T01:31:56;98928.94;;;13.77
72236;BMP280;60146;52.498;13.462;2023-03-14T01:34:21;98928.88;;;13.74
72236;BMP280;60146;52.498;13.462;2023-03-14T01:36:46;98944.09;;;13.80
72236;BMP280;60146;52.498;13.462;2023-03-14T01:39:12;98946.28;;;13.78
72236;BMP280;60146;52.498;13.462;2023-03-14T01:41:39;98941.78;;;13.78
72236;BMP280;60146;52.498;13.462;2023-03-14T01:44:04;98940.94;;;13.75
72236;BMP280;60146;52.498;13.462;2023-03-14T01:46:43;98938.09;;;13.83
72236;BMP280;60146;52.498;13.462;2023-03-14T01:49:21;98949.38;;;13.98
72236;BMP280;60146;52.498;13.462;2023-03-14T01:51:59;98953.31;;;13.89
72236;BMP280;60146;52.498;13.462;2023-03-14T01:54:27;98968.94;;;13.82
72236;BMP280;60146;52.498;13.462;2023-03-14T01:57:24;98961.56;;;13.88
72236;BMP280;60146;52.498;13.462;2023-03-14T02:00:03;98952.22;;;13.90
72236;BMP280;60146;52.498;13.462;2023-03-14T02:02:30;98940.75;;;13.83
72236;BMP280;60146;52.498;13.462;2023-03-14T02:04:56;98936.84;;;13.77
72236;BMP280;60146;52.498;13.462;2023-03-14T02:07:32;98938.13;;;13.68
72236;BMP280;60146;52.498;13.462;2023-03-14T02:09:59;98928.94;;;13.77
72236;BMP280;60146;52.498;13.462;2023-03-14T02:12:26;98929.97;;;13.73
72236;BMP280;60146;52.498;13.462;2023-03-14T02:14:53;98926.53;;;13.69
72236;BMP280;60146;52.498;13.462;2023-03-14T02:17:19;98916.66;;;13.66
72236;BMP280;60146;52.498;13.462;2023-03-14T02:20:03;98907.94;;;13.62
72236;BMP280;60146;52.498;13.462;2023-03-14T02:22:31;98916.66;;;13.66
72236;BMP280;60146;52.498;13.462;2023-03-14T02:25:05;98913.53;;;13.60
72236;BMP280;60146;52.498;13.462;2023-03-14T02:27:33;98916.31;;;13.52
72236;BMP280;60146;52.498;13.462;2023-03-14T02:30:02;98905.78;;;13.52
72236;BMP280;60146;52.498;13.462;2023-03-14T02:32:30;98903.59;;;13.54
72236;BMP280;60146;52.498;13.462;2023-03-14T02:34:59;98907.22;;;13.65
72236;BMP280;60146;52.498;13.462;2023-03-14T02:37:50;98906.81;;;13.63
72236;BMP280;60146;52.498;13.462;2023-03-14T02:40:17;98906.41;;;13.61
72236;BMP280;60146;52.498;13.462;2023-03-14T02:42:43;98900.28;;;13.57
72236;BMP280;60146;52.498;13.462;2023-03-14T02:47:34;98903.66;;;13.57
72236;BMP280;60146;52.498;13.462;2023-03-14T02:50:11;98888.63;;;13.58
72236;BMP280;60146;52.498;13.462;2023-03-14T02:52:37;98886.69;;;13.55
72236;BMP280;60146;52.498;13.462;2023-03-14T02:55:04;98877.88;;;13.63
72236;BMP280;60146;52.498;13.462;2023-03-14T02:57:29;98878.09;;;13.58
72236;BMP280;60146;52.498;13.462;2023-03-14T02:59:58;98861.44;;;13.51
72236;BMP280;60146;52.498;13.462;2023-03-14T03:02:25;98860.19;;;13.63
72236;BMP280;60146;52.498;13.462;2023-03-14T03:04:50;98857.84;;;13.43
72236;BMP280;60146;52.498;13.462;2023-03-14T03:07:16;98848.50;;;13.46
72236;BMP280;60146;52.498;13.462;2023-03-14T03:09:41;98844.88;;;13.50
72236;BMP280;60146;52.498;13.462;2023-03-14T03:12:06;98828.16;;;13.43
72236;BMP280;60146;52.498;13.462;2023-03-14T03:14:32;98825.09;;;13.41
72236;BMP280;60146;52.498;13.462;2023-03-14T03:16:58;98814.81;;;13.51
72236;BMP280;60146;52.498;13.462;2023-03-14T03:19:23;98810.09;;;13.41
72236;BMP280;60146;52.498;13.462;2023-03-14T03:21:48;98807.34;;;13.53
72236;BMP280;60146;52.498;13.462;2023-03-14T03:24:14;98797.34;;;13.43
72236;BMP280;60146;52.498;13.462;2023-03-14T03:26:39;98798.72;;;13.37
72236;BMP280;60146;52.498;13.462;2023-03-14T03:29:05;98803.13;;;13.34
72236;BMP280;60146;52.498;13.462;2023-03-14T03:31:30;98829.59;;;13.40
72236;BMP280;60146;52.498;13.462;2023-03-14T03:33:56;98843.72;;;13.33
72236;BMP280;60146;52.498;13.462;2023-03-14T03:36:24;98828.06;;;13.39
72236;BMP280;60146;52.498;13.462;2023-03-14T03:38:49;98822.28;;;13.49
72236;BMP280;60146;52.498;13.462;2023-03-14T03:41:15;98844.28;;;13.41
72236;BMP280;60146;52.498;13.462;2023-03-14T03:43:40;98836.97;;;13.35
72236;BMP280;60146;52.498;13.462;2023-03-14T03:46:06;98834.28;;;13.32
72236;BMP280;60146;52.498;13.462;2023-03-14T03:48:32;98837.75;;;13.36
72236;BMP280;60146;52.498;13.462;2023-03-14T03:50:58;98827.31;;;13.24
72236;BMP280;60146;52.498;13.462;2023-03-14T03:53:24;98818.91;;;13.34
72236;BMP280;60146;52.498;13.462;2023-03-14T03:55:49;98813.06;;;13.25
72236;BMP280;60146;52.498;13.462;2023-03-14T03:58:15;98812.66;;;13.23
72236;BMP280;60146;52.498;13.462;2023-03-14T04:00:40;98818.66;;;13.23
72236;BMP280;60146;52.498;13.462;2023-03-14T04:03:06;98819.44;;;13.24
72236;BMP280;60146;52.498;13.462;2023-03-14T04:05:32;98826.22;;;13.25
72236;BMP280;60146;52.498;13.462;2023-03-14T04:07:57;98826.81;;;13.18
72236;BMP280;60146;52.498;13.462;2023-03-14T04:10:22;98826.00;;;13.15
72236;BMP280;60146;52.498;13.462;2023-03-14T04:12:48;98804.41;;;13.24
72236;BMP280;60146;52.498;13.462;2023-03-14T04:15:13;98816.97;;;13.16
72236;BMP280;60146;52.498;13.462;2023-03-14T04:17:39;98825.88;;;13.11
72236;BMP280;60146;52.498;13.462;2023-03-14T04:20:04;98817.72;;;13.16
72236;BMP280;60146;52.498;13.462;2023-03-14T04:22:30;98814.94;;;13.09
72236;BMP280;60146;52.498;13.462;2023-03-14T04:24:55;98810.25;;;13.18
72236;BMP280;60146;52.498;13.462;2023-03-14T04:27:21;98797.69;;;13.12
72236;BMP280;60146;52.498;13.462;2023-03-14T04:29:46;98818.84;;;13.15
72236;BMP280;60146;52.498;13.462;2023-03-14T04:32:11;98808.75;;;13.17
72236;BMP280;60146;52.498;13.462;2023-03-14T04:34:37;98796.13;;;13.07
72236;BMP280;60146;52.498;13.462;2023-03-14T04:37:02;98797.81;;;13.15
72236;BMP280;60146;52.498;13.462;2023-03-14T04:39:28;98797.53;;;13.20
72236;BMP280;60146;52.498;13.462;2023-03-14T04:41:53;98786.69;;;13.21
72236;BMP280;60146;52.498;13.462;2023-03-14T04:44:19;98787.69;;;13.17
72236;BMP280;60146;52.498;13.462;2023-03-14T04:46:44;98775.41;;;13.21
72236;BMP280;60146;52.498;13.462;2023-03-14T04:49:10;98768.47;;;13.13
72236;BMP280;60146;52.498;13.462;2023-03-14T04:51:35;98770.97;;;13.10
72236;BMP280;60146;52.498;13.462;2023-03-14T04:54:00;98767.38;;;13.14
72236;BMP280;60146;52.498;13.462;2023-03-14T04:56:26;98762.09;;;13.14
72236;BMP280;60146;52.498;13.462;2023-03-14T04:58:52;98754.56;;;13.13
72236;BMP280;60146;52.498;13.462;2023-03-14T05:01:18;98749.34;;;13.16
72236;BMP280;60146;52.498;13.462;2023-03-14T05:03:43;98762.75;;;13.11
72236;BMP280;60146;52.498;13.462;2023-03-14T05:06:08;98758.53;;;13.07
72236;BMP280;60146;52.498;13.462;2023-03-14T05:08:34;98771.25;;;13.20
72236;BMP280;60146;52.498;13.462;2023-03-14T05:10:59;98775.50;;;13.09
72236;BMP280;60146;52.498;13.462;2023-03-14T05:13:25;98769.56;;;13.12
72236;BMP280;60146;52.498;13.462;2023-03-14T05:15:50;98763.03;;;13.06
72236;BMP280;60146;52.498;13.462;2023-03-14T05:18:17;98769.88;;;13.11
72236;BMP280;60146;52.498;13.462;2023-03-14T05:20:42;98753.34;;;13.10
72236;BMP280;60146;52.498;13.462;2023-03-14T05:23:11;98740.97;;;13.11
72236;BMP280;60146;52.498;13.462;2023-03-14T05:25:36;98732.13;;;13.18
72236;BMP280;60146;52.498;13.462;2023-03-14T05:28:01;98735.88;;;13.17
72236;BMP280;60146;52.498;13.462;2023-03-14T05:30:27;98729.34;;;13.12
72236;BMP280;60146;52.498;13.462;2023-03-14T05:32:53;98740.31;;;13.14
72236;BMP280;60146;52.498;13.462;2023-03-14T05:35:19;98730.78;;;13.24
72236;BMP280;60146;52.498;13.462;2023-03-14T05:37:44;98732.13;;;13.18
72236;BMP280;60146;52.498;13.462;2023-03-14T05:40:10;98740.38;;;13.17
72236;BMP280;60146;52.498;13.462;2023-03-14T05:42:36;98730.78;;;13.24
72236;BMP280;60146;52.498;13.462;2023-03-14T05:45:01;98734.59;;;13.27
72236;BMP280;60146;52.498;13.462;2023-03-14T05:47:27;98746.38;;;13.17
72236;BMP280;60146;52.498;13.462;2023-03-14T05:49:53;98734.94;;;13.25
72236;BMP280;60146;52.498;13.462;2023-03-14T05:52:18;98738.50;;;13.33
72236;BMP280;60146;52.498;13.462;2023-03-14T05:54:44;98751.88;;;13.28
72236;BMP280;60146;52.498;13.462;2023-03-14T05:57:09;98745.13;;;13.27
72236;BMP280;60146;52.498;13.462;2023-03-14T05:59:34;98732.31;;;13.25
72236;BMP280;60146;52.498;13.462;2023-03-14T06:02:00;98731.38;;;13.33
72236;BMP280;60146;52.498;13.462;2023-03-14T06:04:25;98738.13;;;13.34
72236;BMP280;60146;52.498;13.462;2023-03-14T06:06:51;98731.84;;;13.38
72236;BMP280;60146;52.498;13.462;2023-03-14T06:09:16;98730.09;;;13.27
72236;BMP280;60146;52.498;13.462;2023-03-14T06:11:44;98730.09;;;13.27
72236;BMP280;60146;52.498;13.462;2023-03-14T06:14:11;98743.03;;;13.36
72236;BMP280;60146;52.498;13.462;2023-03-14T06:16:36;98728.84;;;13.40
72236;BMP280;60146;52.498;13.462;2023-03-14T06:19:02;98731.00;;;13.35
72236;BMP280;60146;52.498;13.462;2023-03-14T06:21:27;98735.31;;;13.42
72236;BMP280;60146;52.498;13.462;2023-03-14T06:23:53;98735.91;;;13.51
72236;BMP280;60146;52.498;13.462;2023-03-14T06:26:18;98737.59;;;13.44
72236;BMP280;60146;52.498;13.462;2023-03-14T06:28:43;98739.63;;;13.50
72236;BMP280;60146;52.498;13.462;2023-03-14T06:31:09;98735.31;;;13.42
72236;BMP280;60146;52.498;13.462;2023-03-14T06:33:34;98740.84;;;13.37
72236;BMP280;60146;52.498;13.462;2023-03-14T06:36:00;98739.47;;;13.43
72236;BMP280;60146;52.498;13.462;2023-03-14T06:38:25;98755.41;;;13.50
72236;BMP280;60146;52.498;13.462;2023-03-14T06:40:50;98752.06;;;13.53
72236;BMP280;60146;52.498;13.462;2023-03-14T06:43:16;98737.47;;;13.56
72236;BMP280;60146;52.498;13.462;2023-03-14T06:45:41;98750.84;;;13.66
72236;BMP280;60146;52.498;13.462;2023-03-14T06:48:06;98747.59;;;13.72
72236;BMP280;60146;52.498;13.462;2023-03-14T06:50:32;98748.91;;;13.63
72236;BMP280;60146;52.498;13.462;2023-03-14T06:52:57;98765.50;;;13.67
72236;BMP280;60146;52.498;13.462;2023-03-14T06:55:22;98767.13;;;13.71
72236;BMP280;60146;52.498;13.462;2023-03-14T06:57:48;98759.38;;;13.78
72236;BMP280;60146;52.498;13.462;2023-03-14T07:00:13;98766.03;;;13.91
72236;BMP280;60146;52.498;13.462;2023-03-14T07:02:39;98780.16;;;13.83
72236;BMP280;60146;52.498;13.462;2023-03-14T07:05:05;98783.84;;;13.97
72236;BMP280;60146;52.498;13.462;2023-03-14T07:07:31;98792.59;;;14.04
72236;BMP280;60146;52.498;13.462;2023-03-14T07:09:57;98793.38;;;14.05
72236;BMP280;60146;52.498;13.462;2023-03-14T07:12:22;98790.69;;;14.01
72236;BMP280;60146;52.498;13.462;2023-03-14T07:14:47;98773.63;;;14.14
72236;BMP280;60146;52.498;13.462;2023-03-14T07:17:13;98788.88;;;14.05
72236;BMP280;60146;52.498;13.462;2023-03-14T07:19:38;98795.25;;;14.04
72236;BMP280;60146;52.498;13.462;2023-03-14T07:22:04;98787.00;;;14.06
72236;BMP280;60146;52.498;13.462;2023-03-14T07:24:30;98798.78;;;14.12
72236;BMP280;60146;52.498;13.462;2023-03-14T07:26:56;98793.66;;;14.18
72236;BMP280;60146;52.498;13.462;2023-03-14T07:29:21;98807.88;;;14.14
72236;BMP280;60146;52.498;13.462;2023-03-14T07:31:47;98801.25;;;14.23
72236;BMP280;60146;52.498;13.462;2023-03-14T07:34:12;98783.00;;;14.34
72236;BMP280;60146;52.498;13.462;2023-03-14T07:36:38;98789.72;;;14.50
72236;BMP280;60146;52.498;13.462;2023-03-14T07:39:03;98799.94;;;14.33
72236;BMP280;60146;52.498;13.462;2023-03-14T07:41:29;98811.81;;;14.23
72236;BMP280;60146;52.498;13.462;2023-03-14T07:43:55;98795.56;;;14.40
72236;BMP280;60146;52.498;13.462;2023-03-14T07:46:20;98802.56;;;14.33
72236;BMP280;60146;52.498;13.462;2023-03-14T07:48:46;98806.19;;;14.25
72236;BMP280;60146;52.498;13.462;2023-03-14T07:51:11;98793.91;;;14.32
72236;BMP280;60146;52.498;13.462;2023-03-14T07:53:36;98806.53;;;14.23
72236;BMP280;60146;52.498;13.462;2023-03-14T07:56:02;98786.41;;;14.34
72236;BMP280;60146;52.498;13.462;2023-03-14T07:58:27;98791.69;;;14.34
72236;BMP280;60146;52.498;13.462;2023-03-14T08:00:53;98801.81;;;14.32
72236;BMP280;60146;52.498;13.462;2023-03-14T08:03:18;98789.63;;;14.65
72236;BMP280;60146;52.498;13.462;2023-03-14T08:05:47;98791.78;;;14.59
72236;BMP280;60146;52.498;13.462;2023-03-14T08:08:13;98784.75;;;14.67
72236;BMP280;60146;52.498;13.462;2023-03-14T08:10:38;98780.41;;;14.77
72236;BMP280;60146;52.498;13.462;2023-03-14T08:13:04;98784.31;;;14.87
72236;BMP280;60146;52.498;13.462;2023-03-14T08:15:30;98780.09;;;15.04
72236;BMP280;60146;52.498;13.462;2023-03-14T08:17:55;98768.97;;;14.92
72236;BMP280;60146;52.498;13.462;2023-03-14T08:20:22;98779.78;;;14.84
72236;BMP280;60146;52.498;13.462;2023-03-14T08:22:48;98783.28;;;14.91
72236;BMP280;60146;52.498;13.462;2023-03-14T08:25:14;98771.31;;;14.97
72236;BMP280;60146;52.498;13.462;2023-03-14T08:27:40;98774.78;;;14.79
72236;BMP280;60146;52.498;13.462;2023-03-14T08:30:09;98778.88;;;14.76
72236;BMP280;60146;52.498;13.462;2023-03-14T08:32:38;98778.34;;;14.90
72236;BMP280;60146;52.498;13.462;2023-03-14T08:35:05;98778.25;;;14.83
72236;BMP280;60146;52.498;13.462;2023-03-14T08:37:31;98766.41;;;14.99
72236;BMP280;60146;52.498;13.462;2023-03-14T08:39:57;98773.13;;;14.93
72236;BMP280;60146;52.498;13.462;2023-03-14T08:42:22;98794.69;;;14.76
72236;BMP280;60146;52.498;13.462;2023-03-14T08:44:48;98783.81;;;14.78
72236;BMP280;60146;52.498;13.462;2023-03-14T08:47:13;98793.16;;;14.97
72236;BMP280;60146;52.498;13.462;2023-03-14T08:49:39;98789.56;;;14.83
72236;BMP280;60146;52.498;13.462;2023-03-14T08:52:04;98804.00;;;14.93
72236;BMP280;60146;52.498;13.462;2023-03-14T08:54:30;98795.91;;;15.04
72236;BMP280;60146;52.498;13.462;2023-03-14T08:56:56;98793.53;;;14.96
72236;BMP280;60146;52.498;13.462;2023-03-14T08:59:22;98802.38;;;14.85
72236;BMP280;60146;52.498;13.462;2023-03-14T09:01:48;98805.53;;;14.94
72236;BMP280;60146;52.498;13.462;2023-03-14T09:04:13;98804.00;;;14.93
72236;BMP280;60146;52.498;13.462;2023-03-14T09:06:39;98802.22;;;14.75
72236;BMP280;60146;52.498;13.462;2023-03-14T09:09:05;98793.56;;;14.99
72236;BMP280;60146;52.498;13.462;2023-03-14T09:11:31;98788.34;;;15.03
72236;BMP280;60146;52.498;13.462;2023-03-14T09:13:56;98793.72;;;15.10
72236;BMP280;60146;52.498;13.462;2023-03-14T09:16:22;98776.78;;;15.36
72236;BMP280;60146;52.498;13.462;2023-03-14T09:18:48;98777.97;;;16.03
72236;BMP280;60146;52.498;13.462;2023-03-14T09:21:13;98782.59;;;17.57
72236;BMP280;60146;52.498;13.462;2023-03-14T09:23:39;98767.44;;;19.45
72236;BMP280;60146;52.498;13.462;2023-03-14T09:26:05;98758.28;;;20.59
72236;BMP280;60146;52.498;13.462;2023-03-14T09:28:31;98748.47;;;20.52
72236;BMP280;60146;52.498;13.462;2023-03-14T09:30:56;98751.59;;;21.16
72236;BMP280;60146;52.498;13.462;2023-03-14T09:33:22;98747.59;;;21.34
72236;BMP280;60146;52.498;13.462;2023-03-14T09:35:47;98747.84;;;21.39
72236;BMP280;60146;52.498;13.462;2023-03-14T09:38:13;98754.03;;;21.00
72236;BMP280;60146;52.498;13.462;2023-03-14T09:40:38;98738.91;;;21.56
72236;BMP280;60146;52.498;13.462;2023-03-14T09:43:04;98757.78;;;22.16
72236;BMP280;60146;52.498;13.462;2023-03-14T09:45:33;98746.97;;;22.01
72236;BMP280;60146;52.498;13.462;2023-03-14T09:48:01;98743.56;;;21.49
72236;BMP280;60146;52.498;13.462;2023-03-14T09:50:40;98754.94;;;20.51
72236;BMP280;60146;52.498;13.462;2023-03-14T09:53:16;98747.09;;;19.01
72236;BMP280;60146;52.498;13.462;2023-03-14T09:55:43;98760.44;;;18.40
72236;BMP280;60146;52.498;13.462;2023-03-14T09:58:11;98768.81;;;17.21
72236;BMP280;60146;52.498;13.462;2023-03-14T10:00:37;98763.13;;;16.69
72236;BMP280;60146;52.498;13.462;2023-03-14T10:05:33;98765.13;;;16.37
72236;BMP280;60146;52.498;13.462;2023-03-14T10:07:59;98767.00;;;15.97
72236;BMP280;60146;52.498;13.462;2023-03-14T10:10:25;98780.09;;;15.91
72236;BMP280;60146;52.498;13.462;2023-03-14T10:15:35;98758.19;;;16.22
72236;BMP280;60146;52.498;13.462;2023-03-14T10:18:03;98773.16;;;16.11
72236;BMP280;60146;52.498;13.462;2023-03-14T10:20:33;98770.00;;;15.96
72236;BMP280;60146;52.498;13.462;2023-03-14T10:23:04;98776.09;;;16.03
72236;BMP280;60146;52.498;13.462;2023-03-14T10:25:34;98766.44;;;16.17
72236;BMP280;60146;52.498;13.462;2023-03-14T10:28:00;98780.06;;;16.19
72236;BMP280;60146;52.498;13.462;2023-03-14T10:33:12;98786.47;;;16.15
72236;BMP280;60146;52.498;13.462;2023-03-14T10:35:45;98773.78;;;15.95
72236;BMP280;60146;52.498;13.462;2023-03-14T10:38:17;98772.38;;;15.75
72236;BMP280;60146;52.498;13.462;2023-03-14T10:40:52;98772.31;;;15.69
72236;BMP280;60146;52.498;13.462;2023-03-14T10:43:22;98770.69;;;15.90
72236;BMP280;60146;52.498;13.462;2023-03-14T10:46:00;98781.59;;;15.88
72236;BMP280;60146;52.498;13.462;2023-03-14T10:48:33;98776.31;;;15.88
72236;BMP280;60146;52.498;13.462;2023-03-14T10:53:57;98776.16;;;15.74
72236;BMP280;60146;52.498;13.462;2023-03-14T10:56:25;98763.75;;;15.78
72236;BMP280;60146;52.498;13.462;2023-03-14T10:58:53;98773.91;;;15.76
72236;BMP280;60146;52.498;13.462;2023-03-14T11:04:45;98786.94;;;15.63
72236;BMP280;60146;52.498;13.462;2023-03-14T11:07:29;98782.91;;;15.72
72236;BMP280;60146;52.498;13.462;2023-03-14T11:21:14;98769.28;;;16.02
72236;BMP280;60146;52.498;13.462;2023-03-14T11:26:37;98766.44;;;15.82
72236;BMP280;60146;52.498;13.462;2023-03-14T11:29:20;98781.59;;;15.88
72236;BMP280;60146;52.498;13.462;2023-03-14T11:31:46;98774.22;;;15.72
72236;BMP280;60146;52.498;13.462;2023-03-14T11:39:19;98768.50;;;15.95
72236;BMP280;60146;52.498;13.462;2023-03-14T11:41:52;98762.66;;;15.83
72236;BMP280;60146;52.498;13.462;2023-03-14T11:44:20;98766.13;;;15.87
72236;BMP280;60146;52.498;13.462;2023-03-14T11:46:59;98767.00;;;16.01
72236;BMP280;60146;52.498;13.462;2023-03-14T11:49:38;98773.06;;;16.01
72236;BMP280;60146;52.498;13.462;2023-03-14T11:57:18;98777.28;;;15.73
72236;BMP280;60146;52.498;13.462;2023-03-14T12:02:21;98788.66;;;15.49
72236;BMP280;60146;52.498;13.462;2023-03-14T12:08:32;98770.97;;;15.52
72236;BMP280;60146;52.498;13.462;2023-03-14T12:11:33;98773.63;;;15.56
72236;BMP280;60146;52.498;13.462;2023-03-14T12:14:01;98773.88;;;15.44
72236;BMP280;60146;52.498;13.462;2023-03-14T12:16:33;98764.28;;;15.58
72236;BMP280;60146;52.498;13.462;2023-03-14T12:21:50;98759.91;;;15.72
72236;BMP280;60146;52.498;13.462;2023-03-14T12:24:24;98752.34;;;15.71
72236;BMP280;60146;52.498;13.462;2023-03-14T12:26:55;98765.09;;;15.66
72236;BMP280;60146;52.498;13.462;2023-03-14T12:29:21;98743.97;;;15.66
72236;BMP280;60146;52.498;13.462;2023-03-14T12:31:48;98745.59;;;15.73
72236;BMP280;60146;52.498;13.462;2023-03-14T12:45:28;98746.47;;;15.84
72236;BMP280;60146;52.498;13.462;2023-03-14T12:48:22;98746.81;;;15.83
72236;BMP280;60146;52.498;13.462;2023-03-14T12:56:21;98734.66;;;16.10
72236;BMP280;60146;52.498;13.462;2023-03-14T12:59:01;98732.88;;;16.21
72236;BMP280;60146;52.498;13.462;2023-03-14T13:01:33;98723.50;;;16.30
72236;BMP280;60146;52.498;13.462;2023-03-14T13:04:04;98725.09;;;16.35
72236;BMP280;60146;52.498;13.462;2023-03-14T13:06:53;98719.00;;;15.92
72236;BMP280;60146;52.498;13.462;2023-03-14T13:12:10;98732.25;;;15.63
72236;BMP280;60146;52.498;13.462;2023-03-14T13:14:41;98737.66;;;15.41
72236;BMP280;60146;52.498;13.462;2023-03-14T13:17:12;98756.41;;;15.08
72236;BMP280;60146;52.498;13.462;2023-03-14T13:19:38;98756.94;;;14.25
72236;BMP280;60146;52.498;13.462;2023-03-14T13:22:11;98746.81;;;13.72
72236;BMP280;60146;52.498;13.462;2023-03-14T13:24:38;98752.50;;;13.74
72236;BMP280;60146;52.498;13.462;2023-03-14T13:27:03;98752.41;;;13.52
72236;BMP280;60146;52.498;13.462;2023-03-14T13:29:30;98754.41;;;13.58
72236;BMP280;60146;52.498;13.462;2023-03-14T13:31:59;98740.31;;;13.66
72236;BMP280;60146;52.498;13.462;2023-03-14T13:34:29;98730.81;;;13.98
72236;BMP280;60146;52.498;13.462;2023-03-14T13:37:01;98734.28;;;15.15
72236;BMP280;60146;52.498;13.462;2023-03-14T13:39:27;98714.13;;;17.76
72236;BMP280;60146;52.498;13.462;2023-03-14T13:41:58;98698.34;;;20.47
72236;BMP280;60146;52.498;13.462;2023-03-14T13:44:34;98683.22;;;23.04
72236;BMP280;60146;52.498;13.462;2023-03-14T13:47:02;98678.47;;;24.21
72236;BMP280;60146;52.498;13.462;2023-03-14T13:49:40;98678.94;;;25.35
72236;BMP280;60146;52.498;13.462;2023-03-14T13:52:28;98676.31;;;23.57
72236;BMP280;60146;52.498;13.462;2023-03-14T13:54:58;98692.94;;;23.64
72236;BMP280;60146;52.498;13.462;2023-03-14T13:57:25;98690.41;;;23.73
72236;BMP280;60146;52.498;13.462;2023-03-14T14:00:16;98696.56;;;22.29
72236;BMP280;60146;52.498;13.462;2023-03-14T14:02:42;98678.50;;;20.88
72236;BMP280;60146;52.498;13.462;2023-03-14T14:05:13;98688.69;;;20.93
72236;BMP280;60146;52.498;13.462;2023-03-14T14:07:45;98698.94;;;20.62
72236;BMP280;60146;52.498;13.462;2023-03-14T14:10:14;98692.63;;;20.49
72236;BMP280;60146;52.498;13.462;2023-03-14T14:12:45;98688.19;;;21.04
72236;BMP280;60146;52.498;13.462;2023-03-14T14:15:23;98666.72;;;21.44
72236;BMP280;60146;52.498;13.462;2023-03-14T14:18:09;98676.38;;;22.05
72236;BMP280;60146;52.498;13.462;2023-03-14T14:20:42;98665.84;;;21.50
72236;BMP280;60146;52.498;13.462;2023-03-14T14:23:22;98667.41;;;21.48
72236;BMP280;60146;52.498;13.462;2023-03-14T14:25:55;98664.03;;;20.89
72236;BMP280;60146;52.498;13.462;2023-03-14T14:36:39;98676.34;;;18.50
72236;BMP280;60146;52.498;13.462;2023-03-14T14:39:19;98673.66;;;17.99
72236;BMP280;60146;52.498;13.462;2023-03-14T14:41:49;98670.56;;;17.63
72236;BMP280;60146;52.498;13.462;2023-03-14T14:44:18;98700.91;;;17.76
72236;BMP280;60146;52.498;13.462;2023-03-14T14:46:46;98674.03;;;17.70
72236;BMP280;60146;52.498;13.462;2023-03-14T14:49:14;98664.84;;;17.44
72236;BMP280;60146;52.498;13.462;2023-03-14T14:52:12;98678.84;;;17.41
72236;BMP280;60146;52.498;13.462;2023-03-14T14:57:51;98677.41;;;17.64
72236;BMP280;60146;52.498;13.462;2023-03-14T15:00:25;98668.31;;;17.55
72236;BMP280;60146;52.498;13.462;2023-03-14T15:02:53;98663.00;;;17.48
72236;BMP280;60146;52.498;13.462;2023-03-14T15:05:25;98675.69;;;17.12
72236;BMP280;60146;52.498;13.462;2023-03-14T15:07:57;98666.06;;;16.77
72236;BMP280;60146;52.498;13.462;2023-03-14T15:10:24;98660.91;;;16.38
72236;BMP280;60146;52.498;13.462;2023-03-14T15:12:53;98669.28;;;16.47
72236;BMP280;60146;52.498;13.462;2023-03-14T15:15:29;98669.06;;;16.23
72236;BMP280;60146;52.498;13.462;2023-03-14T15:17:55;98669.06;;;16.19
72236;BMP280;60146;52.498;13.462;2023-03-14T15:20:26;98664.91;;;16.18
72236;BMP280;60146;52.498;13.462;2023-03-14T15:22:52;98698.25;;;15.94